createdAt,value
2023-01-04T00:01:05.683Z,10.38
2023-01-04T00:03:33.536Z,10.88
2023-01-04T00:06:03.886Z,11.52
2023-01-04T00:08:30.956Z,11.40
2023-01-04T00:11:14.068Z,10.27
2023-01-04T00:13:41.523Z,11.32
2023-01-04T00:16:12.332Z,11.30
2023-01-04T00:18:39.724Z,10.18
2023-01-04T00:21:12.550Z,10.57
2023-01-04T00:23:40.745Z,10.88
2023-01-04T00:26:09.850Z,10.68
2023-01-04T00:28:37.542Z,11.05
2023-01-04T00:31:06.367Z,9.93
2023-01-04T00:33:34.814Z,9.75
2023-01-04T00:36:07.306Z,9.77
2023-01-04T00:38:35.525Z,9.50
2023-01-04T00:41:03.631Z,9.80
2023-01-04T00:43:30.814Z,10.65
2023-01-04T00:45:58.093Z,9.70
2023-01-04T00:48:25.709Z,9.95
2023-01-04T00:50:52.785Z,9.98
2023-01-04T00:53:19.752Z,9.38
2023-01-04T00:55:46.999Z,9.40
2023-01-04T00:58:13.977Z,9.80
2023-01-04T01:00:41.207Z,9.32
2023-01-04T01:03:08.594Z,10.27
2023-01-04T01:05:36.207Z,10.45
2023-01-04T01:08:23.778Z,10.45
2023-01-04T01:10:52.087Z,9.90
2023-01-04T01:13:20.123Z,9.73
2023-01-04T01:15:47.209Z,11.18
2023-01-04T01:18:14.509Z,9.98
2023-01-04T01:20:44.019Z,10.27
2023-01-04T01:23:13.813Z,9.77
2023-01-04T01:25:41.987Z,10.45
2023-01-04T01:28:09.976Z,9.82
2023-01-04T01:30:41.927Z,11.27
2023-01-04T01:33:10.339Z,10.50
2023-01-04T01:35:37.907Z,10.95
2023-01-04T01:38:04.973Z,10.20
2023-01-04T01:40:32.044Z,11.27
2023-01-04T01:42:59.111Z,11.10
2023-01-04T01:45:32.446Z,10.63
2023-01-04T01:48:06.692Z,10.23
2023-01-04T01:50:39.191Z,10.63
2023-01-04T01:53:09.078Z,10.95
2023-01-04T01:55:37.160Z,11.40
2023-01-04T01:58:07.554Z,10.85
2023-01-04T02:00:35.201Z,10.75
2023-01-04T02:03:21.951Z,11.73
2023-01-04T02:05:53.833Z,12.05
2023-01-04T02:08:23.749Z,11.60
2023-01-04T02:10:51.022Z,11.80
2023-01-04T02:13:25.198Z,12.07
2023-01-04T02:16:20.461Z,11.35
2023-01-04T02:19:05.189Z,11.93
2023-01-04T02:21:55.297Z,11.52
2023-01-04T02:24:41.741Z,11.60
2023-01-04T02:27:38.518Z,11.48
2023-01-04T02:30:08.547Z,11.90
2023-01-04T02:32:38.297Z,11.98
2023-01-04T02:35:14.259Z,11.38
2023-01-04T02:38:16.493Z,11.35
2023-01-04T02:40:52.643Z,11.68
2023-01-04T02:43:53.457Z,11.77
2023-01-04T02:46:32.549Z,12.55
2023-01-04T02:49:19.409Z,13.18
2023-01-04T02:51:46.325Z,12.00
2023-01-04T02:54:17.337Z,12.68
2023-01-04T02:56:58.404Z,13.55
2023-01-04T02:59:34.168Z,13.55
2023-01-04T03:02:57.342Z,12.63
2023-01-04T03:05:52.232Z,13.13
2023-01-04T03:08:37.597Z,12.82
2023-01-04T03:11:30.669Z,14.70
2023-01-04T03:14:33.046Z,13.80
2023-01-04T03:16:53.357Z,13.75
2023-01-04T03:19:42.546Z,13.57
2023-01-04T03:22:33.764Z,13.32
2023-01-04T03:25:21.946Z,13.75
2023-01-04T03:28:11.559Z,13.68
2023-01-04T03:31:06.261Z,13.68
2023-01-04T03:33:52.366Z,14.20
2023-01-04T03:36:47.211Z,12.02
2023-01-04T03:39:57.840Z,13.55
2023-01-04T03:42:58.926Z,14.05
2023-01-04T03:45:56.696Z,14.45
2023-01-04T03:48:46.363Z,13.88
2023-01-04T03:51:15.960Z,14.27
2023-01-04T03:53:49.421Z,14.30
2023-01-04T03:56:18.796Z,13.43
2023-01-04T03:58:46.088Z,13.40
2023-01-04T04:01:13.655Z,12.98
2023-01-04T04:03:59.138Z,12.93
2023-01-04T04:06:44.662Z,13.45
2023-01-04T04:09:11.597Z,13.75
2023-01-04T04:11:39.612Z,13.25
2023-01-04T04:14:06.665Z,12.75
2023-01-04T04:16:33.994Z,14.32
2023-01-04T04:19:08.006Z,13.05
2023-01-04T04:21:35.810Z,13.27
2023-01-04T04:24:02.897Z,12.23
2023-01-04T04:26:29.986Z,12.85
2023-01-04T04:28:57.202Z,14.38
2023-01-04T04:31:24.635Z,13.98
2023-01-04T04:33:51.592Z,14.05
2023-01-04T04:36:18.610Z,13.13
2023-01-04T04:38:45.494Z,13.27
2023-01-04T04:41:32.333Z,13.20
2023-01-04T04:43:59.813Z,13.63
2023-01-04T04:46:27.149Z,13.40
2023-01-04T04:48:54.120Z,12.77
2023-01-04T04:51:21.195Z,13.35
2023-01-04T04:53:49.841Z,12.63
2023-01-04T04:56:16.978Z,13.35
2023-01-04T04:58:43.954Z,12.50
2023-01-04T05:01:10.969Z,12.90
2023-01-04T05:03:38.420Z,13.75
2023-01-04T05:06:05.491Z,14.88
2023-01-04T05:08:32.616Z,14.02
2023-01-04T05:10:59.731Z,14.35
2023-01-04T05:13:31.318Z,14.32
2023-01-04T05:15:58.685Z,14.63
2023-01-04T05:18:25.640Z,14.15
2023-01-04T05:20:53.010Z,13.98
2023-01-04T05:23:21.379Z,14.10
2023-01-04T05:26:00.445Z,14.00
2023-01-04T05:28:27.900Z,13.63
2023-01-04T05:30:55.839Z,12.82
2023-01-04T05:33:31.501Z,14.27
2023-01-04T05:36:01.536Z,14.13
2023-01-04T05:38:28.639Z,14.68
2023-01-04T05:40:56.401Z,13.35
2023-01-04T05:43:24.365Z,13.68
2023-01-04T05:45:54.190Z,13.90
2023-01-04T05:48:23.759Z,14.07
2023-01-04T05:50:50.773Z,14.18
2023-01-04T05:53:18.335Z,14.57
2023-01-04T05:55:47.513Z,14.45
2023-01-04T05:58:15.000Z,14.10
2023-01-04T06:00:41.919Z,14.15
2023-01-04T06:03:08.841Z,13.27
2023-01-04T06:05:35.882Z,14.68
2023-01-04T06:08:03.070Z,13.13
2023-01-04T06:10:30.121Z,13.02
2023-01-04T06:12:57.106Z,13.18
2023-01-04T06:15:24.342Z,14.63
2023-01-04T06:17:51.322Z,13.60
2023-01-04T06:20:18.428Z,13.27
2023-01-04T06:22:45.428Z,13.20
2023-01-04T06:25:12.475Z,14.07
2023-01-04T06:27:40.776Z,13.18
2023-01-04T06:30:08.625Z,13.80
2023-01-04T06:32:35.766Z,13.18
2023-01-04T06:35:02.873Z,13.80
2023-01-04T06:37:30.003Z,13.40
2023-01-04T06:39:56.834Z,13.00
2023-01-04T06:42:42.485Z,13.35
2023-01-04T06:45:10.052Z,13.70
2023-01-04T06:47:37.075Z,14.95
2023-01-04T06:50:05.136Z,13.23
2023-01-04T06:52:32.155Z,13.88
2023-01-04T06:54:59.177Z,14.10
2023-01-04T06:57:26.179Z,13.63
2023-01-04T06:59:53.263Z,13.23
2023-01-04T07:02:20.670Z,15.15
2023-01-04T07:04:47.997Z,12.07
2023-01-04T07:07:14.933Z,13.93
2023-01-04T07:09:41.796Z,12.40
2023-01-04T07:12:08.742Z,12.85
2023-01-04T07:14:35.897Z,12.10
2023-01-04T07:17:02.860Z,12.70
2023-01-04T07:19:29.755Z,12.15
2023-01-04T07:21:58.806Z,12.45
2023-01-04T07:24:30.018Z,12.25
2023-01-04T07:27:00.304Z,12.68
2023-01-04T07:29:28.067Z,13.10
2023-01-04T07:31:55.713Z,12.57
2023-01-04T07:34:25.321Z,14.02
2023-01-04T07:36:52.912Z,12.98
2023-01-04T07:39:21.514Z,14.20
2023-01-04T07:41:49.744Z,12.50
2023-01-04T07:44:21.566Z,13.63
2023-01-04T07:46:48.659Z,13.05
2023-01-04T07:49:18.685Z,13.82
2023-01-04T07:51:47.981Z,13.05
2023-01-04T07:54:16.632Z,13.25
2023-01-04T07:56:44.648Z,12.15
2023-01-04T07:59:13.505Z,13.02
2023-01-04T08:01:40.858Z,13.00
2023-01-04T08:04:10.098Z,14.48
2023-01-04T08:06:38.176Z,13.00
2023-01-04T08:09:06.968Z,13.75
2023-01-04T08:11:34.870Z,14.00
2023-01-04T08:14:02.058Z,13.55
2023-01-04T08:16:39.020Z,12.82
2023-01-04T08:19:24.839Z,13.70
2023-01-04T08:21:51.970Z,12.63
2023-01-04T08:24:21.195Z,13.05
2023-01-04T08:26:48.238Z,12.75
2023-01-04T08:29:15.639Z,12.00
2023-01-04T08:31:42.783Z,14.02
2023-01-04T08:34:10.824Z,12.60
2023-01-04T08:36:50.849Z,12.18
2023-01-04T08:39:18.104Z,11.48
2023-01-04T08:42:04.199Z,12.35
2023-01-04T08:44:38.428Z,13.88
2023-01-04T08:47:05.840Z,13.95
2023-01-04T09:06:09.162Z,11.95
2023-01-04T09:08:38.641Z,13.43
2023-01-04T09:11:14.467Z,14.18
2023-01-04T09:13:42.328Z,12.70
2023-01-04T09:16:12.218Z,13.55
2023-01-04T09:18:39.517Z,13.45
2023-01-04T09:21:08.853Z,14.25
2023-01-04T09:26:09.791Z,12.55
2023-01-04T09:28:37.577Z,13.02
2023-01-04T09:31:16.919Z,13.02
2023-01-04T09:34:13.430Z,12.82
2023-01-04T09:36:32.621Z,13.40
2023-01-04T09:38:59.681Z,12.38
2023-01-04T09:41:34.746Z,11.88
2023-01-04T09:44:10.630Z,12.60
2023-01-04T09:46:43.534Z,11.70
2023-01-04T09:49:31.656Z,11.57
2023-01-04T09:52:10.389Z,11.93
2023-01-04T09:54:56.171Z,12.98
2023-01-04T09:57:30.193Z,12.80
2023-01-04T10:00:25.175Z,13.00
2023-01-04T10:03:12.396Z,11.50
2023-01-04T10:05:40.606Z,10.38
2023-01-04T10:08:15.362Z,10.90
2023-01-04T10:11:03.574Z,12.05
2023-01-04T10:13:58.586Z,12.07
2023-01-04T10:17:12.635Z,12.70
2023-01-04T10:22:41.978Z,11.60
2023-01-04T10:25:14.667Z,11.40
2023-01-04T10:27:53.685Z,10.75
2023-01-04T10:30:26.259Z,11.98
2023-01-04T10:32:59.351Z,12.32
2023-01-04T10:35:27.696Z,14.82
2023-01-04T10:37:59.516Z,13.05
2023-01-04T10:40:29.448Z,14.80
2023-01-04T10:43:30.355Z,14.05
2023-01-04T10:46:45.231Z,12.27
2023-01-04T10:49:38.597Z,12.10
2023-01-04T10:52:17.834Z,13.00
2023-01-04T10:54:52.429Z,12.45
2023-01-04T10:57:38.725Z,13.60
2023-01-04T11:00:23.551Z,11.82
2023-01-04T11:03:02.267Z,10.63
2023-01-04T11:05:48.510Z,11.77
2023-01-04T11:08:26.910Z,11.98
2023-01-04T11:11:04.503Z,12.63
2023-01-04T11:13:31.655Z,11.70
2023-01-04T11:16:01.495Z,12.18
2023-01-04T11:18:29.131Z,10.63
2023-01-04T11:20:55.928Z,12.07
2023-01-04T11:23:23.029Z,11.10
2023-01-04T11:25:56.678Z,11.25
2023-01-04T11:28:33.262Z,11.60
2023-01-04T11:31:30.550Z,12.20
2023-01-04T11:34:03.182Z,10.00
2023-01-04T11:36:41.081Z,11.48
2023-01-04T11:39:18.123Z,12.05
2023-01-04T11:42:03.281Z,12.50
2023-01-04T11:44:33.000Z,11.65
2023-01-04T11:47:24.298Z,12.00
2023-01-04T11:49:52.764Z,12.27
2023-01-04T11:52:37.788Z,11.77
2023-01-04T11:55:17.269Z,12.23
2023-01-04T11:57:44.926Z,11.23
2023-01-04T12:00:16.166Z,13.18
2023-01-04T12:03:00.563Z,13.35
2023-01-04T12:05:31.863Z,14.13
2023-01-04T12:07:59.672Z,13.43
2023-01-04T12:10:28.437Z,10.48
2023-01-04T12:12:58.920Z,10.98
2023-01-04T12:15:28.699Z,12.10
2023-01-04T12:18:03.088Z,11.98
2023-01-04T12:20:30.289Z,10.77
2023-01-04T12:22:57.146Z,11.00
2023-01-04T12:25:46.678Z,10.85
2023-01-04T12:28:34.848Z,12.52
2023-01-04T12:31:20.956Z,9.57
2023-01-04T12:34:00.701Z,10.65
2023-01-04T12:36:39.771Z,10.45
2023-01-04T12:39:13.420Z,11.32
2023-01-04T12:41:40.365Z,10.43
2023-01-04T12:44:47.757Z,10.27
2023-01-04T12:47:36.460Z,11.02
2023-01-04T12:50:08.172Z,10.98
2023-01-04T12:53:01.925Z,10.75
2023-01-04T12:55:32.225Z,9.68
2023-01-04T12:58:51.154Z,10.13
2023-01-04T13:01:25.484Z,8.98
2023-01-04T13:04:05.204Z,10.65
2023-01-04T13:06:42.721Z,11.35
2023-01-04T13:09:24.227Z,9.48
2023-01-04T13:12:05.931Z,10.55
2023-01-04T13:14:58.648Z,10.32
2023-01-04T13:17:27.398Z,11.65
2023-01-04T13:19:54.792Z,11.32
2023-01-04T13:22:30.360Z,12.43
2023-01-04T13:25:01.728Z,12.13
2023-01-04T13:27:29.704Z,12.20
2023-01-04T13:29:56.591Z,11.30
2023-01-04T13:32:24.808Z,11.60
2023-01-04T13:34:53.354Z,12.38
2023-01-04T13:37:26.924Z,11.50
2023-01-04T13:40:15.301Z,12.27
2023-01-04T13:42:46.968Z,12.00
2023-01-04T13:45:19.596Z,11.95
2023-01-04T13:47:51.527Z,11.65
2023-01-04T13:50:37.895Z,12.35
2023-01-04T13:53:08.127Z,11.73
2023-01-04T13:55:38.231Z,12.73
2023-01-04T13:58:15.768Z,12.90
2023-01-04T14:00:56.082Z,11.13
2023-01-04T14:03:40.182Z,11.70
2023-01-04T14:06:10.278Z,13.77
2023-01-04T14:08:55.577Z,12.05
2023-01-04T14:11:49.441Z,11.35
2023-01-04T14:14:51.821Z,12.27
2023-01-04T14:17:20.570Z,12.02
2023-01-04T14:20:20.124Z,11.85
2023-01-04T14:22:47.303Z,11.07
2023-01-04T14:25:37.075Z,11.18
2023-01-04T14:28:22.624Z,13.57
2023-01-04T14:30:52.477Z,11.30
2023-01-04T14:33:26.215Z,12.15
2023-01-04T14:36:11.477Z,13.13
2023-01-04T14:38:59.480Z,13.30
2023-01-04T14:41:42.039Z,12.95
2023-01-04T14:44:11.174Z,13.68
2023-01-04T14:46:38.961Z,12.65
2023-01-04T14:49:07.128Z,12.18
2023-01-04T14:51:34.342Z,12.27
2023-01-04T14:54:01.325Z,13.60
2023-01-04T14:56:28.457Z,12.98
2023-01-04T14:58:55.608Z,14.27
2023-01-04T15:01:22.772Z,13.40
2023-01-04T15:03:51.331Z,13.60
2023-01-04T15:06:18.856Z,15.68
2023-01-04T15:08:46.034Z,14.65
2023-01-04T15:11:14.026Z,17.27
2023-01-04T15:13:41.694Z,15.43
2023-01-04T15:16:12.341Z,13.23
2023-01-04T15:18:41.032Z,14.95
2023-01-04T15:21:09.605Z,13.47
2023-01-04T15:23:37.334Z,14.80
2023-01-04T15:26:08.804Z,15.25
2023-01-04T15:28:36.214Z,13.93
2023-01-04T15:31:11.488Z,13.35
2023-01-04T15:33:38.961Z,14.68
2023-01-04T15:36:09.111Z,14.85
2023-01-04T15:38:36.292Z,15.77
2023-01-04T15:41:05.838Z,16.35
2023-01-04T15:43:37.525Z,16.23
2023-01-04T15:46:07.740Z,14.35
2023-01-04T15:48:37.932Z,16.08
2023-01-04T15:51:09.862Z,14.98
2023-01-04T15:53:37.162Z,16.08
2023-01-04T15:56:07.479Z,15.88
2023-01-04T15:58:37.902Z,17.10
2023-01-04T16:01:10.470Z,15.18
2023-01-04T16:03:38.035Z,15.02
2023-01-04T16:06:10.679Z,15.23
2023-01-04T16:08:37.860Z,15.32
2023-01-04T16:11:20.597Z,16.83
2023-01-04T16:13:49.485Z,15.65
2023-01-04T16:16:17.296Z,17.98
2023-01-04T16:18:52.006Z,16.55
2023-01-04T16:21:27.474Z,18.48
2023-01-04T16:24:07.037Z,16.98
2023-01-04T16:26:40.138Z,17.35
2023-01-04T16:29:12.142Z,17.25
2023-01-04T16:31:40.245Z,18.38
2023-01-04T16:34:07.277Z,17.50
2023-01-04T16:36:34.348Z,17.80
2023-01-04T16:39:01.716Z,18.38
2023-01-04T16:41:28.671Z,19.50
2023-01-04T16:43:58.954Z,18.38
2023-01-04T16:46:34.852Z,19.48
2023-01-04T16:49:11.274Z,19.52
2023-01-04T16:51:40.182Z,18.50
2023-01-04T16:54:09.600Z,19.05
2023-01-04T16:59:04.270Z,18.63
2023-01-04T17:01:33.915Z,18.45
2023-01-04T17:06:31.905Z,18.67
2023-01-04T17:09:00.923Z,17.15
2023-01-04T17:14:18.254Z,17.95
2023-01-04T17:16:45.462Z,20.88
2023-01-04T17:19:12.442Z,20.35
2023-01-04T17:21:39.249Z,22.55
2023-01-04T17:24:06.761Z,20.13
2023-01-04T17:26:33.880Z,21.20
2023-01-04T17:29:02.374Z,18.85
2023-01-04T17:31:35.481Z,21.33
2023-01-04T17:34:03.421Z,20.77
2023-01-04T17:36:30.891Z,21.23
2023-01-04T17:39:01.608Z,19.40
2023-01-04T17:41:30.449Z,19.75
2023-01-04T17:44:00.422Z,18.58
2023-01-04T17:46:31.889Z,21.25
2023-01-04T17:49:25.536Z,19.83
2023-01-04T17:51:55.309Z,19.77
2023-01-04T17:54:23.069Z,20.27
2023-01-04T17:56:50.047Z,21.05
2023-01-04T17:59:17.040Z,19.33
2023-01-04T18:01:44.072Z,17.95
2023-01-04T18:04:11.426Z,20.67
2023-01-04T18:06:39.737Z,18.80
2023-01-04T18:09:08.074Z,18.33
2023-01-04T18:11:35.827Z,19.83
2023-01-04T18:14:07.779Z,24.20
2023-01-04T18:16:56.908Z,19.75
2023-01-04T18:19:30.727Z,21.98
2023-01-04T18:21:58.779Z,21.35
2023-01-04T18:24:41.979Z,20.63
2023-01-04T18:27:29.003Z,18.27
2023-01-04T18:29:56.689Z,19.05
2023-01-04T18:32:25.382Z,21.10
2023-01-04T18:34:52.335Z,20.70
2023-01-04T18:37:19.535Z,19.80
2023-01-04T18:39:48.084Z,19.17
2023-01-04T18:42:21.448Z,19.40
2023-01-04T18:44:49.642Z,19.00
2023-01-04T18:49:00.490Z,19.25
2023-01-04T18:52:09.673Z,18.67
2023-01-04T18:54:36.984Z,19.02
2023-01-04T18:57:05.171Z,20.10
2023-01-04T19:02:17.216Z,17.27
2023-01-04T19:04:44.575Z,18.52
2023-01-04T19:07:11.500Z,19.65
2023-01-04T19:09:39.525Z,19.02
2023-01-04T19:12:07.966Z,20.15
2023-01-04T19:14:37.361Z,21.63
2023-01-04T19:17:05.119Z,21.05
2023-01-04T19:19:32.125Z,20.48
2023-01-04T19:21:59.168Z,20.83
2023-01-04T19:24:27.021Z,22.08
2023-01-04T19:26:55.155Z,21.92
2023-01-04T19:29:22.779Z,22.35
2023-01-04T19:36:58.586Z,20.60
2023-01-04T19:39:25.409Z,21.13
2023-01-04T19:41:52.182Z,19.92
2023-01-04T19:44:25.589Z,19.35
2023-01-04T19:46:52.673Z,19.90
2023-01-04T19:49:19.659Z,20.67
2023-01-04T19:51:48.978Z,20.23
2023-01-04T19:54:21.700Z,20.50
2023-01-04T19:56:52.281Z,20.00
2023-01-04T19:59:19.341Z,18.23
2023-01-04T20:01:46.426Z,20.13
2023-01-04T20:04:14.158Z,21.15
2023-01-04T20:06:41.477Z,20.90
2023-01-04T20:09:08.539Z,21.30
2023-01-04T20:11:36.283Z,23.48
2023-01-04T20:14:03.279Z,21.92
2023-01-04T20:16:30.421Z,22.20
2023-01-04T20:18:58.373Z,21.92
2023-01-04T20:21:25.459Z,22.13
2023-01-04T20:23:52.300Z,21.73
2023-01-04T20:26:19.583Z,22.33
2023-01-04T20:28:46.530Z,21.75
2023-01-04T20:31:16.495Z,22.17
2023-01-04T20:33:43.937Z,21.90
2023-01-04T20:36:17.098Z,21.85
2023-01-04T20:38:45.838Z,21.50
2023-01-04T20:41:18.386Z,20.85
2023-01-04T20:43:46.574Z,20.73
2023-01-04T20:46:19.220Z,20.13
2023-01-04T20:48:46.996Z,19.52
2023-01-04T20:51:19.546Z,19.35
2023-01-04T20:53:46.564Z,19.38
2023-01-04T20:56:18.983Z,19.92
2023-01-04T20:58:47.458Z,21.25
2023-01-04T21:01:16.597Z,19.00
2023-01-04T21:03:44.329Z,18.75
2023-01-04T21:06:14.351Z,20.38
2023-01-04T21:08:42.817Z,19.90
2023-01-04T21:11:10.379Z,20.00
2023-01-04T21:13:37.224Z,18.15
2023-01-04T21:16:05.348Z,19.63
2023-01-04T21:18:32.966Z,18.95
2023-01-04T21:21:05.466Z,19.55
2023-01-04T21:23:32.375Z,16.63
2023-01-04T21:25:59.290Z,18.30
2023-01-04T21:28:27.325Z,18.83
2023-01-04T21:30:54.196Z,19.52
2023-01-04T21:33:21.190Z,18.75
2023-01-04T21:35:48.135Z,18.42
2023-01-04T21:38:15.090Z,19.35
2023-01-04T21:40:42.820Z,17.85
2023-01-04T21:43:16.413Z,17.92
2023-01-04T21:45:43.980Z,16.85
2023-01-04T21:48:10.998Z,17.27
2023-01-04T21:50:37.943Z,18.40
2023-01-04T21:53:04.962Z,18.42
2023-01-04T21:55:34.841Z,15.85
2023-01-04T21:58:03.170Z,15.35
2023-01-04T22:00:30.225Z,16.63
2023-01-04T22:02:57.079Z,16.33
2023-01-04T22:05:24.031Z,18.35
2023-01-04T22:07:51.197Z,16.75
2023-01-04T22:10:18.201Z,17.15
2023-01-04T22:12:47.949Z,15.63
2023-01-04T22:15:15.072Z,15.95
2023-01-04T22:17:41.914Z,16.63
2023-01-04T22:20:09.335Z,16.88
2023-01-04T22:22:36.218Z,15.25
2023-01-04T22:25:03.232Z,15.43
2023-01-04T22:27:30.104Z,16.95
2023-01-04T22:29:57.113Z,17.02
2023-01-04T22:32:24.035Z,17.10
2023-01-04T22:34:50.948Z,17.13
2023-01-04T22:37:17.924Z,15.90
2023-01-04T22:39:44.722Z,16.95
2023-01-04T22:42:11.797Z,14.57
2023-01-04T22:44:38.684Z,15.18
2023-01-04T22:47:06.048Z,17.80
2023-01-04T22:49:33.417Z,18.00
2023-01-04T22:52:00.361Z,18.90
2023-01-04T22:54:27.452Z,19.15
2023-01-04T22:56:54.308Z,18.38
2023-01-04T22:59:23.144Z,18.25
2023-01-04T23:01:50.087Z,19.25
2023-01-04T23:04:17.703Z,18.33
2023-01-04T23:06:45.671Z,19.38
2023-01-04T23:09:15.819Z,19.50
2023-01-04T23:11:43.359Z,20.48
2023-01-04T23:14:15.128Z,17.85
2023-01-04T23:16:42.690Z,19.40
2023-01-04T23:19:11.603Z,19.38
2023-01-04T23:21:38.748Z,18.73
2023-01-04T23:24:06.248Z,17.58
2023-01-04T23:26:34.250Z,17.88
2023-01-04T23:29:01.939Z,19.45
2023-01-04T23:31:31.665Z,18.38
2023-01-04T23:34:01.583Z,18.98
2023-01-04T23:36:37.205Z,19.13
2023-01-04T23:39:07.488Z,18.77
2023-01-04T23:41:45.191Z,18.05
2023-01-04T23:44:29.107Z,18.75
2023-01-04T23:47:01.497Z,17.65
2023-01-04T23:49:31.611Z,17.83
2023-01-04T23:51:59.341Z,17.98
2023-01-04T23:54:26.466Z,17.52
2023-01-04T23:56:54.299Z,17.85
2023-01-04T23:59:22.492Z,18.10
